createdAt,value
2022-11-17T00:00:42.400Z,6.50
2022-11-17T00:03:15.612Z,6.44
2022-11-17T00:05:43.657Z,6.40
2022-11-17T00:08:10.313Z,6.40
2022-11-17T00:10:36.886Z,6.40
2022-11-17T00:13:22.604Z,6.40
2022-11-17T00:15:49.283Z,6.40
2022-11-17T00:18:34.423Z,6.40
2022-11-17T00:21:21.659Z,6.40
2022-11-17T00:23:49.883Z,6.34
2022-11-17T00:26:20.431Z,6.30
2022-11-17T00:28:51.287Z,6.34
2022-11-17T00:31:36.422Z,6.34
2022-11-17T00:34:06.286Z,6.40
2022-11-17T00:36:40.165Z,6.40
2022-11-17T00:39:08.534Z,6.40
2022-11-17T00:41:35.483Z,6.40
2022-11-17T00:44:02.769Z,6.40
2022-11-17T00:46:29.541Z,6.40
2022-11-17T00:48:56.235Z,6.40
2022-11-17T00:51:24.006Z,6.40
2022-11-17T00:53:51.913Z,6.40
2022-11-17T00:56:18.743Z,6.40
2022-11-17T00:58:45.442Z,6.42
2022-11-17T01:01:13.007Z,6.48
2022-11-17T01:03:39.629Z,6.50
2022-11-17T01:06:13.908Z,6.50
2022-11-17T01:08:43.377Z,6.50
2022-11-17T01:11:17.932Z,6.52
2022-11-17T01:13:47.328Z,6.60
2022-11-17T01:16:19.301Z,6.60
2022-11-17T01:18:49.239Z,6.60
2022-11-17T01:21:23.358Z,6.60
2022-11-17T01:23:52.725Z,6.68
2022-11-17T01:26:23.743Z,6.70
2022-11-17T01:28:51.448Z,6.70
2022-11-17T01:31:25.859Z,6.70
2022-11-17T01:33:53.519Z,6.70
2022-11-17T01:36:52.604Z,6.70
2022-11-17T01:39:19.234Z,6.80
2022-11-17T01:41:46.089Z,6.80
2022-11-17T01:44:50.805Z,6.80
2022-11-17T01:47:24.006Z,6.80
2022-11-17T01:50:01.274Z,6.80
2022-11-17T01:52:31.753Z,6.80
2022-11-17T01:55:00.682Z,6.82
2022-11-17T01:57:33.638Z,6.86
2022-11-17T02:00:10.363Z,6.90
2022-11-17T02:02:39.773Z,6.90
2022-11-17T02:05:22.881Z,6.90
2022-11-17T02:07:54.785Z,6.80
2022-11-17T02:10:21.807Z,6.80
2022-11-17T02:12:48.935Z,6.80
2022-11-17T02:15:15.601Z,6.90
2022-11-17T02:17:43.276Z,6.90
2022-11-17T02:20:18.166Z,6.90
2022-11-17T02:23:15.827Z,6.90
2022-11-17T02:26:42.164Z,7.00
2022-11-17T02:29:13.457Z,7.00
2022-11-17T02:32:10.970Z,7.00
2022-11-17T02:34:53.014Z,7.00
2022-11-17T02:37:35.518Z,7.00
2022-11-17T02:40:15.033Z,7.00
2022-11-17T02:43:32.957Z,7.00
2022-11-17T02:46:11.737Z,7.10
2022-11-17T02:48:53.497Z,7.10
2022-11-17T02:51:23.822Z,7.02
2022-11-17T02:53:54.528Z,7.00
2022-11-17T02:56:21.355Z,7.10
2022-11-17T02:58:53.563Z,7.00
2022-11-17T03:01:50.718Z,7.00
2022-11-17T03:04:32.101Z,7.00
2022-11-17T03:07:35.802Z,7.00
2022-11-17T03:10:21.649Z,7.00
2022-11-17T03:13:32.253Z,7.10
2022-11-17T03:16:38.887Z,7.20
2022-11-17T03:19:27.763Z,7.20
2022-11-17T03:22:06.530Z,7.20
2022-11-17T03:24:44.305Z,7.20
2022-11-17T03:27:27.020Z,7.20
2022-11-17T03:30:00.004Z,7.10
2022-11-17T03:32:32.208Z,7.10
2022-11-17T03:35:10.088Z,7.06
2022-11-17T03:37:43.095Z,7.00
2022-11-17T03:40:14.144Z,7.00
2022-11-17T03:42:46.540Z,6.90
2022-11-17T03:45:22.434Z,6.90
2022-11-17T03:48:08.433Z,6.90
2022-11-17T03:50:42.999Z,6.82
2022-11-17T03:53:09.995Z,6.80
2022-11-17T03:56:20.936Z,6.80
2022-11-17T03:59:00.038Z,6.80
2022-11-17T04:01:29.368Z,6.84
2022-11-17T04:03:56.218Z,6.80
2022-11-17T04:06:22.815Z,6.80
2022-11-17T04:08:49.710Z,6.78
2022-11-17T04:11:35.289Z,6.70
2022-11-17T04:14:20.976Z,6.70
2022-11-17T04:16:47.633Z,6.70
2022-11-17T04:19:14.267Z,6.70
2022-11-17T04:21:40.840Z,6.80
2022-11-17T04:24:08.142Z,6.80
2022-11-17T04:26:53.209Z,6.80
2022-11-17T04:29:19.924Z,6.80
2022-11-17T04:31:46.509Z,6.86
2022-11-17T04:34:13.152Z,6.90
2022-11-17T04:36:44.775Z,6.90
2022-11-17T04:39:13.959Z,6.90
2022-11-17T04:41:53.834Z,6.90
2022-11-17T04:44:26.986Z,6.98
2022-11-17T04:46:55.193Z,7.00
2022-11-17T04:49:24.394Z,7.00
2022-11-17T04:51:53.153Z,7.00
2022-11-17T04:54:24.693Z,7.00
2022-11-17T04:56:54.654Z,7.00
2022-11-17T04:59:21.575Z,7.02
2022-11-17T05:01:48.596Z,7.10
2022-11-17T05:04:39.319Z,7.10
2022-11-17T05:07:07.851Z,7.10
2022-11-17T05:09:34.854Z,7.10
2022-11-17T05:12:20.407Z,7.10
2022-11-17T05:14:49.107Z,7.00
2022-11-17T05:17:16.815Z,7.00
2022-11-17T05:19:46.388Z,7.00
2022-11-17T05:22:41.120Z,7.00
2022-11-17T05:25:08.607Z,7.10
2022-11-17T05:27:36.294Z,7.10
2022-11-17T05:30:06.510Z,7.10
2022-11-17T05:32:33.259Z,7.18
2022-11-17T05:34:59.921Z,7.20
2022-11-17T05:37:26.593Z,7.20
2022-11-17T05:39:53.276Z,7.22
2022-11-17T05:42:20.183Z,7.30
2022-11-17T05:44:48.589Z,7.30
2022-11-17T05:47:16.063Z,7.30
2022-11-17T05:49:42.656Z,7.30
2022-11-17T05:52:09.487Z,7.30
2022-11-17T05:54:39.063Z,7.30
2022-11-17T05:57:14.351Z,7.40
2022-11-17T05:59:59.638Z,7.40
2022-11-17T06:02:32.384Z,7.40
2022-11-17T06:04:58.945Z,7.50
2022-11-17T06:07:26.465Z,7.50
2022-11-17T06:09:53.446Z,7.50
2022-11-17T06:12:20.445Z,7.60
2022-11-17T06:14:47.038Z,7.60
2022-11-17T06:17:25.755Z,7.60
2022-11-17T06:20:29.869Z,7.70
2022-11-17T06:23:01.454Z,7.70
2022-11-17T06:25:29.141Z,7.80
2022-11-17T06:27:57.144Z,7.80
2022-11-17T06:30:23.725Z,7.80
2022-11-17T06:32:51.124Z,7.80
2022-11-17T06:35:18.069Z,7.90
2022-11-17T06:37:44.704Z,7.90
2022-11-17T06:40:13.390Z,7.90
2022-11-17T06:42:58.867Z,7.90
2022-11-17T06:45:26.260Z,8.00
2022-11-17T06:47:54.044Z,8.00
2022-11-17T06:50:20.924Z,8.04
2022-11-17T06:52:47.624Z,8.10
2022-11-17T06:55:14.467Z,8.10
2022-11-17T06:57:41.419Z,8.10
2022-11-17T07:00:09.782Z,8.16
2022-11-17T07:02:37.369Z,8.20
2022-11-17T07:05:05.040Z,8.20
2022-11-17T07:07:31.841Z,8.20
2022-11-17T07:09:58.598Z,8.20
2022-11-17T07:12:25.268Z,8.20
2022-11-17T07:14:52.048Z,8.20
2022-11-17T07:17:18.733Z,8.20
2022-11-17T07:19:45.352Z,8.30
2022-11-17T07:22:12.021Z,8.30
2022-11-17T07:24:39.099Z,8.30
2022-11-17T07:27:06.586Z,8.38
2022-11-17T07:29:33.383Z,8.40
2022-11-17T07:32:00.065Z,8.40
2022-11-17T07:34:26.731Z,8.40
2022-11-17T07:36:53.350Z,8.44
2022-11-17T07:39:21.797Z,8.50
2022-11-17T07:41:48.853Z,8.50
2022-11-17T07:44:15.438Z,8.60
2022-11-17T07:46:42.158Z,8.60
2022-11-17T07:49:08.752Z,8.60
2022-11-17T07:51:35.427Z,8.70
2022-11-17T07:54:02.223Z,8.70
2022-11-17T07:56:28.918Z,8.70
2022-11-17T07:58:55.695Z,8.80
2022-11-17T08:01:22.376Z,8.80
2022-11-17T08:03:49.406Z,8.80
2022-11-17T08:06:17.377Z,8.90
2022-11-17T08:08:44.114Z,8.90
2022-11-17T08:11:13.004Z,9.00
2022-11-17T08:13:41.266Z,9.00
2022-11-17T08:16:09.885Z,9.00
2022-11-17T08:18:37.621Z,9.06
2022-11-17T08:21:14.671Z,9.10
2022-11-17T08:23:42.079Z,9.10
2022-11-17T08:26:11.415Z,9.00
2022-11-17T08:28:38.858Z,9.00
2022-11-17T08:31:07.819Z,9.00
2022-11-17T08:33:35.020Z,9.10
2022-11-17T08:36:04.031Z,9.10
2022-11-17T08:38:31.200Z,9.10
2022-11-17T08:41:09.720Z,9.10
2022-11-17T08:43:37.227Z,9.20
2022-11-17T08:46:04.011Z,9.30
2022-11-17T08:48:31.724Z,9.40
2022-11-17T08:51:05.271Z,9.40
2022-11-17T08:53:31.984Z,9.50
2022-11-17T08:55:59.005Z,9.50
2022-11-17T08:58:25.639Z,9.60
2022-11-17T09:00:52.633Z,9.70
2022-11-17T09:03:19.366Z,9.90
2022-11-17T09:05:49.591Z,10.10
2022-11-17T09:08:43.853Z,10.30
2022-11-17T09:11:09.743Z,10.50
2022-11-17T09:13:37.743Z,10.70
2022-11-17T09:16:08.466Z,10.80
2022-11-17T09:18:38.672Z,10.92
2022-11-17T09:21:16.511Z,11.04
2022-11-17T09:23:43.731Z,11.20
2022-11-17T09:26:14.273Z,11.54
2022-11-17T09:28:41.381Z,12.00
2022-11-17T09:31:14.657Z,12.46
2022-11-17T09:33:42.995Z,13.54
2022-11-17T09:36:11.519Z,14.54
2022-11-17T09:38:39.961Z,15.54
2022-11-17T09:41:41.931Z,16.46
2022-11-17T09:44:39.609Z,17.66
2022-11-17T09:47:41.213Z,18.46
2022-11-17T09:50:37.855Z,19.40
2022-11-17T09:53:44.393Z,20.08
2022-11-17T09:56:13.778Z,20.76
2022-11-17T09:58:51.596Z,20.90
2022-11-17T10:01:21.863Z,20.64
2022-11-17T10:03:51.414Z,20.10
2022-11-17T10:06:22.737Z,19.82
2022-11-17T10:09:12.112Z,19.30
2022-11-17T10:11:42.418Z,19.00
2022-11-17T10:14:15.893Z,18.88
2022-11-17T10:16:53.412Z,18.70
2022-11-17T10:19:24.476Z,18.60
2022-11-17T10:22:03.882Z,18.40
2022-11-17T10:24:34.682Z,18.00
2022-11-17T10:27:23.054Z,17.60
2022-11-17T10:29:56.609Z,17.30
2022-11-17T10:32:23.350Z,17.16
2022-11-17T10:34:50.089Z,16.86
2022-11-17T10:37:32.337Z,16.70
2022-11-17T10:40:25.786Z,16.50
2022-11-17T10:43:00.036Z,16.30
2022-11-17T10:45:26.792Z,16.30
2022-11-17T10:48:10.712Z,16.20
2022-11-17T10:50:37.463Z,16.20
2022-11-17T10:53:28.417Z,16.14
2022-11-17T10:56:04.387Z,16.00
2022-11-17T10:58:33.880Z,16.00
2022-11-17T11:01:03.979Z,15.90
2022-11-17T11:03:34.862Z,15.90
2022-11-17T11:06:21.272Z,15.80
2022-11-17T11:09:01.639Z,15.70
2022-11-17T11:11:39.602Z,15.68
2022-11-17T11:14:21.362Z,15.70
2022-11-17T11:16:50.902Z,15.70
2022-11-17T11:19:20.234Z,15.60
2022-11-17T11:21:57.657Z,15.50
2022-11-17T11:24:38.878Z,15.50
2022-11-17T11:27:49.132Z,15.58
2022-11-17T11:30:18.033Z,15.60
2022-11-17T11:33:03.977Z,15.60
2022-11-17T11:36:07.823Z,15.60
2022-11-17T11:39:20.095Z,15.60
2022-11-17T11:42:15.076Z,15.50
2022-11-17T11:45:01.754Z,15.48
2022-11-17T11:47:54.417Z,15.40
2022-11-17T11:50:26.344Z,15.30
2022-11-17T11:53:11.078Z,15.20
2022-11-17T11:55:41.576Z,15.20
2022-11-17T11:58:21.498Z,15.10
2022-11-17T12:01:02.817Z,15.00
2022-11-17T12:03:50.266Z,15.00
2022-11-17T12:06:42.617Z,15.10
2022-11-17T12:10:07.255Z,15.20
2022-11-17T12:12:37.695Z,15.20
2022-11-17T12:15:19.579Z,15.10
2022-11-17T12:17:52.428Z,15.04
2022-11-17T12:20:31.379Z,15.00
2022-11-17T12:23:53.923Z,14.90
2022-11-17T12:26:30.313Z,14.90
2022-11-17T12:29:26.280Z,14.80
2022-11-17T12:32:00.322Z,14.80
2022-11-17T12:35:06.806Z,14.70
2022-11-17T12:37:33.593Z,14.60
2022-11-17T12:40:06.708Z,14.52
2022-11-17T12:42:35.077Z,14.50
2022-11-17T12:45:02.511Z,14.50
2022-11-17T12:47:39.242Z,14.60
2022-11-17T12:50:18.578Z,14.70
2022-11-17T12:53:06.577Z,14.72
2022-11-17T12:55:33.118Z,14.80
2022-11-17T12:58:25.056Z,14.70
2022-11-17T13:01:05.967Z,14.70
2022-11-17T13:04:24.669Z,14.72
2022-11-17T13:07:07.359Z,14.70
2022-11-17T13:09:36.580Z,14.62
2022-11-17T13:12:10.038Z,14.60
2022-11-17T13:14:54.768Z,14.56
2022-11-17T13:17:31.388Z,14.50
2022-11-17T13:20:04.960Z,14.50
2022-11-17T13:22:32.383Z,14.40
2022-11-17T13:25:21.057Z,14.32
2022-11-17T13:27:53.151Z,14.28
2022-11-17T13:30:29.066Z,14.20
2022-11-17T13:32:57.549Z,14.10
2022-11-17T13:35:30.168Z,14.10
2022-11-17T13:38:15.179Z,14.00
2022-11-17T13:41:08.025Z,13.96
2022-11-17T13:43:39.949Z,13.90
2022-11-17T13:46:06.913Z,13.90
2022-11-17T13:48:43.131Z,13.90
2022-11-17T13:51:42.298Z,13.90
2022-11-17T13:54:12.651Z,13.90
2022-11-17T13:56:47.741Z,13.90
2022-11-17T13:59:28.060Z,13.90
2022-11-17T14:02:16.866Z,13.80
2022-11-17T14:05:09.529Z,13.78
2022-11-17T14:07:39.305Z,13.70
2022-11-17T14:10:21.363Z,13.50
2022-11-17T14:13:20.104Z,13.50
2022-11-17T14:15:54.712Z,13.40
2022-11-17T14:18:31.745Z,13.40
2022-11-17T14:21:16.605Z,13.40
2022-11-17T14:23:45.074Z,13.30
2022-11-17T14:26:25.555Z,13.30
2022-11-17T14:28:53.201Z,13.30
2022-11-17T14:31:21.152Z,13.24
2022-11-17T14:33:47.882Z,13.20
2022-11-17T14:36:18.394Z,13.20
2022-11-17T14:38:46.653Z,13.20
2022-11-17T14:41:16.860Z,13.16
2022-11-17T14:43:44.210Z,13.10
2022-11-17T14:46:22.880Z,13.10
2022-11-17T14:48:51.221Z,13.06
2022-11-17T14:51:18.170Z,13.00
2022-11-17T14:53:47.837Z,13.00
2022-11-17T14:56:20.151Z,13.00
2022-11-17T14:58:48.705Z,12.90
2022-11-17T15:01:25.427Z,12.90
2022-11-17T15:03:53.406Z,12.80
2022-11-17T15:06:20.579Z,12.80
2022-11-17T15:08:54.832Z,12.80
2022-11-17T15:11:22.241Z,12.70
2022-11-17T15:13:50.073Z,12.70
2022-11-17T15:16:16.722Z,12.62
2022-11-17T15:18:47.813Z,12.60
2022-11-17T15:21:16.428Z,12.60
2022-11-17T15:23:43.925Z,12.60
2022-11-17T15:26:19.194Z,12.50
2022-11-17T15:28:46.067Z,12.50
2022-11-17T15:31:15.988Z,12.50
2022-11-17T15:33:45.413Z,12.50
2022-11-17T15:36:16.612Z,12.46
2022-11-17T15:38:43.536Z,12.40
2022-11-17T15:41:12.372Z,12.30
2022-11-17T15:43:41.842Z,12.30
2022-11-17T15:46:12.075Z,12.30
2022-11-17T15:48:43.237Z,12.32
2022-11-17T15:51:19.387Z,12.30
2022-11-17T15:53:48.089Z,12.30
2022-11-17T15:56:29.348Z,12.30
2022-11-17T15:59:03.096Z,12.30
2022-11-17T16:01:35.856Z,12.20
2022-11-17T16:04:08.287Z,12.20
2022-11-17T16:06:37.758Z,12.10
2022-11-17T16:09:06.532Z,12.10
2022-11-17T16:11:33.963Z,12.00
2022-11-17T16:14:01.471Z,12.00
2022-11-17T16:16:32.742Z,11.90
2022-11-17T16:18:59.628Z,11.82
2022-11-17T16:21:26.350Z,11.80
2022-11-17T16:23:56.416Z,11.80
2022-11-17T16:26:26.682Z,11.70
2022-11-17T16:29:02.335Z,11.60
2022-11-17T16:31:32.482Z,11.60
2022-11-17T16:34:01.393Z,11.60
2022-11-17T16:36:36.233Z,11.60
2022-11-17T16:39:06.608Z,11.60
2022-11-17T16:41:36.602Z,11.60
2022-11-17T16:44:09.122Z,11.52
2022-11-17T16:46:36.151Z,11.50
2022-11-17T16:49:10.040Z,11.50
2022-11-17T16:51:36.703Z,11.50
2022-11-17T16:54:06.586Z,11.50
2022-11-17T16:56:34.541Z,11.40
2022-11-17T16:59:01.899Z,11.40
2022-11-17T17:01:32.523Z,11.34
2022-11-17T17:04:02.919Z,11.30
2022-11-17T17:06:30.248Z,11.30
2022-11-17T17:08:59.986Z,11.20
2022-11-17T17:11:29.399Z,11.20
2022-11-17T17:14:00.192Z,11.20
2022-11-17T17:16:27.440Z,11.20
2022-11-17T17:18:56.957Z,11.20
2022-11-17T17:21:24.074Z,11.20
2022-11-17T17:23:51.499Z,11.10
2022-11-17T17:26:22.305Z,11.10
2022-11-17T17:28:51.638Z,11.10
2022-11-17T17:31:22.592Z,11.10
2022-11-17T17:33:51.400Z,11.00
2022-11-17T17:36:21.600Z,11.00
2022-11-17T17:38:55.052Z,10.90
2022-11-17T17:41:26.134Z,11.00
2022-11-17T17:44:04.784Z,11.00
2022-11-17T17:46:35.359Z,11.00
2022-11-17T17:49:02.332Z,10.90
2022-11-17T17:51:30.143Z,10.90
2022-11-17T17:54:01.075Z,10.80
2022-11-17T17:56:30.517Z,10.80
2022-11-17T17:58:57.702Z,10.70
2022-11-17T18:01:27.980Z,10.70
2022-11-17T18:04:04.545Z,10.60
2022-11-17T18:06:40.662Z,10.50
2022-11-17T18:09:10.619Z,10.50
2022-11-17T18:11:40.131Z,10.40
2022-11-17T18:14:06.672Z,10.40
2022-11-17T18:16:33.710Z,10.30
2022-11-17T18:19:08.080Z,10.30
2022-11-17T18:21:35.387Z,10.30
2022-11-17T18:24:03.458Z,10.26
2022-11-17T18:26:33.227Z,10.20
2022-11-17T18:29:02.403Z,10.20
2022-11-17T18:31:33.291Z,10.20
2022-11-17T18:34:16.398Z,10.20
2022-11-17T18:36:43.102Z,10.20
2022-11-17T18:39:09.832Z,10.16
2022-11-17T18:41:37.361Z,10.10
2022-11-17T18:44:05.033Z,10.10
2022-11-17T18:46:33.704Z,10.10
2022-11-17T18:49:01.210Z,10.10
2022-11-17T18:51:31.290Z,10.10
2022-11-17T18:54:00.777Z,10.10
2022-11-17T18:56:32.648Z,10.06
2022-11-17T18:58:59.474Z,10.00
2022-11-17T19:01:28.625Z,10.00
2022-11-17T19:04:00.196Z,10.00
2022-11-17T19:06:27.529Z,10.00
2022-11-17T19:08:54.677Z,10.00
2022-11-17T19:11:23.868Z,10.00
2022-11-17T19:13:53.600Z,10.00
2022-11-17T19:16:24.623Z,10.06
2022-11-17T19:18:54.268Z,10.10
2022-11-17T19:21:27.661Z,10.10
2022-11-17T19:23:58.669Z,10.10
2022-11-17T19:26:28.975Z,10.10
2022-11-17T19:29:02.440Z,10.12
2022-11-17T19:31:29.729Z,10.14
2022-11-17T19:33:57.943Z,10.10
2022-11-17T19:36:31.256Z,10.10
2022-11-17T19:39:00.462Z,10.10
2022-11-17T19:41:34.895Z,10.10
2022-11-17T19:44:05.194Z,10.10
2022-11-17T19:46:33.184Z,10.10
2022-11-17T19:49:00.231Z,10.10
2022-11-17T19:51:33.314Z,10.10
2022-11-17T19:54:06.566Z,10.14
2022-11-17T19:56:33.457Z,10.18
2022-11-17T19:59:00.172Z,10.20
2022-11-17T20:01:29.582Z,10.20
2022-11-17T20:04:00.261Z,10.20
2022-11-17T20:06:34.047Z,10.20
2022-11-17T20:09:00.862Z,10.20
2022-11-17T20:11:28.800Z,10.24
2022-11-17T20:13:56.334Z,10.30
2022-11-17T20:16:27.102Z,10.30
2022-11-17T20:18:57.163Z,10.30
2022-11-17T20:21:28.732Z,10.30
2022-11-17T20:23:56.411Z,10.30
2022-11-17T20:26:27.154Z,10.38
2022-11-17T20:28:54.421Z,10.40
2022-11-17T20:31:24.942Z,10.36
2022-11-17T20:33:56.558Z,10.32
2022-11-17T20:36:23.961Z,10.30
2022-11-17T20:38:52.962Z,10.30
2022-11-17T20:41:21.161Z,10.30
2022-11-17T20:43:53.134Z,10.30
2022-11-17T20:46:22.322Z,10.30
2022-11-17T20:48:49.711Z,10.30
2022-11-17T20:51:23.296Z,10.30
2022-11-17T20:53:50.888Z,10.30
2022-11-17T20:56:17.813Z,10.30
2022-11-17T20:58:45.455Z,10.30
2022-11-17T21:01:16.485Z,10.30
2022-11-17T21:03:45.291Z,10.22
2022-11-17T21:06:14.120Z,10.20
2022-11-17T21:08:43.003Z,10.20
2022-11-17T21:11:33.338Z,10.20
2022-11-17T21:14:00.959Z,10.20
2022-11-17T21:16:27.888Z,10.20
2022-11-17T21:18:54.547Z,10.20
2022-11-17T21:21:21.135Z,10.20
2022-11-17T21:23:47.937Z,10.20
2022-11-17T21:26:19.328Z,10.20
2022-11-17T21:28:47.115Z,10.20
2022-11-17T21:31:23.791Z,10.20
2022-11-17T21:34:16.601Z,10.20
2022-11-17T21:36:43.337Z,10.22
2022-11-17T21:39:16.621Z,10.30
2022-11-17T21:41:43.840Z,10.30
2022-11-17T21:44:13.104Z,10.26
2022-11-17T21:46:39.812Z,10.20
2022-11-17T21:49:06.403Z,10.20
2022-11-17T21:51:38.226Z,10.20
2022-11-17T21:54:08.824Z,10.20
2022-11-17T21:56:36.404Z,10.20
2022-11-17T21:59:07.145Z,10.20
2022-11-17T22:01:34.953Z,10.20
2022-11-17T22:04:02.032Z,10.20
2022-11-17T22:06:29.436Z,10.30
2022-11-17T22:08:57.122Z,10.30
2022-11-17T22:11:37.509Z,10.30
2022-11-17T22:14:14.309Z,10.30
2022-11-17T22:16:52.043Z,10.40
2022-11-17T22:19:21.836Z,10.40
2022-11-17T22:21:51.967Z,10.40
2022-11-17T22:24:19.416Z,10.40
2022-11-17T22:26:46.278Z,10.50
2022-11-17T22:29:20.639Z,10.50
2022-11-17T22:31:49.036Z,10.44
2022-11-17T22:34:17.207Z,10.50
2022-11-17T22:36:43.847Z,10.46
2022-11-17T22:39:11.115Z,10.50
2022-11-17T22:41:37.809Z,10.50
2022-11-17T22:44:04.980Z,10.50
2022-11-17T22:46:31.940Z,10.50
2022-11-17T22:48:58.779Z,10.50
2022-11-17T22:51:44.377Z,10.50
2022-11-17T22:54:11.119Z,10.50
2022-11-17T22:56:37.830Z,10.50
2022-11-17T22:59:04.680Z,10.50
2022-11-17T23:01:31.360Z,10.50
2022-11-17T23:03:58.212Z,10.50
2022-11-17T23:06:27.328Z,10.50
2022-11-17T23:08:56.027Z,10.50
2022-11-17T23:11:36.660Z,10.50
2022-11-17T23:14:11.760Z,10.50
2022-11-17T23:16:39.032Z,10.42
2022-11-17T23:19:06.724Z,10.40
2022-11-17T23:21:33.806Z,10.40
2022-11-17T23:24:00.476Z,10.30
2022-11-17T23:26:27.122Z,10.30
2022-11-17T23:28:53.942Z,10.30
2022-11-17T23:31:20.667Z,10.30
2022-11-17T23:33:48.595Z,10.30
2022-11-17T23:36:19.278Z,10.22
2022-11-17T23:38:47.514Z,10.20
2022-11-17T23:41:16.533Z,10.20
2022-11-17T23:43:43.797Z,10.12
2022-11-17T23:46:17.337Z,10.10
2022-11-17T23:48:44.869Z,10.10
2022-11-17T23:51:21.039Z,10.10
2022-11-17T23:53:49.537Z,10.02
2022-11-17T23:56:21.477Z,10.00
2022-11-17T23:58:48.727Z,10.00
